createdAt,value
2024-03-09T00:03:38.269Z,4.213142302852348
2024-03-09T00:11:14.064Z,4.036207529362419
2024-03-09T00:16:22.191Z,3.9349648699664406
2024-03-09T00:19:41.964Z,3.9177760591442974
2024-03-09T00:23:04.634Z,3.8455733536073824
2024-03-09T00:26:27.267Z,3.7299247588087265
2024-03-09T00:29:47.261Z,3.7001979341442968
2024-03-09T00:38:55.985Z,3.795442271392619
2024-03-09T00:42:15.720Z,3.7681561975671136
2024-03-09T00:45:36.437Z,3.7293021182885906
2024-03-09T00:50:14.570Z,3.732736472315436
2024-03-09T00:53:35.227Z,3.7378748951342304
2024-03-09T00:58:26.089Z,3.696826499580536
2024-03-09T01:01:46.525Z,3.6637885381711413
2024-03-09T01:07:47.518Z,3.651059144295302
2024-03-09T01:11:07.714Z,3.634250471895971
2024-03-09T01:14:28.531Z,3.5990706270973165
2024-03-09T01:17:49.750Z,3.582378617869128
2024-03-09T01:25:26.064Z,3.592251730285234
2024-03-09T01:28:46.411Z,3.5312172294463102
2024-03-09T01:32:05.941Z,3.5303180054530205
2024-03-09T01:36:11.214Z,3.522949874161072
2024-03-09T01:46:53.807Z,3.4316301384228147
2024-03-09T01:58:46.065Z,3.3044449979026815
2024-03-09T02:02:05.511Z,3.2700372273489884
2024-03-09T02:05:44.653Z,3.2873453229865737
2024-03-09T02:09:04.228Z,3.20773385067114
2024-03-09T02:13:59.838Z,3.185807728607384
2024-03-09T02:17:20.220Z,3.181984060402683
2024-03-09T02:20:40.115Z,3.151229551174495
2024-03-09T02:24:00.681Z,3.093174549077179
2024-03-09T02:27:20.965Z,3.0890874056208024
2024-03-09T02:30:41.408Z,3.087669096057044
2024-03-09T02:34:01.680Z,3.05399014261745
2024-03-09T02:37:22.681Z,3.0303665058724834
2024-03-09T02:40:44.736Z,3.0261469693791936
2024-03-09T02:45:46.068Z,2.9661349098154326
2024-03-09T02:49:05.984Z,2.8893417051174475
2024-03-09T02:52:26.706Z,2.8778838087248295
2024-03-09T02:55:46.762Z,2.879847420302011
2024-03-09T02:59:07.173Z,2.8890690541107364
2024-03-09T03:03:11.135Z,2.787872273489931
2024-03-09T03:06:31.278Z,2.6932151845637575
2024-03-09T03:09:59.242Z,2.666071990352347
2024-03-09T03:14:10.866Z,2.6118091967281862
2024-03-09T03:18:35.199Z,2.4637793624161066
2024-03-09T03:21:54.727Z,2.439487206375839
2024-03-09T03:25:14.382Z,2.469908766778522
2024-03-09T03:28:35.719Z,2.4403471057046975
2024-03-09T03:34:29.501Z,2.4281564597315435
2024-03-09T03:41:02.938Z,2.395548447986577
2024-03-09T03:44:23.494Z,2.3985672713926185
2024-03-09T03:47:43.371Z,2.3656079593120807
2024-03-09T03:53:11.616Z,2.340159658137583
2024-03-09T03:56:48.166Z,2.3974753565436218
2024-03-09T04:00:07.714Z,2.327528575922817
2024-03-09T04:03:28.698Z,2.3436320260067105
2024-03-09T04:06:48.350Z,2.3330681103187905
2024-03-09T04:21:56.168Z,2.317167837667784
2024-03-09T04:25:17.220Z,2.3219470952181185
2024-03-09T04:28:37.934Z,2.301348835989931
2024-03-09T04:38:17.697Z,2.276778785654361
2024-03-09T04:41:37.920Z,2.2406787437080533
2024-03-09T04:44:57.477Z,2.2256763842281866
2024-03-09T05:09:20.374Z,2.103278366191275
2024-03-09T05:12:40.608Z,2.0824913485738255
2024-03-09T05:16:13.370Z,2.0797097839765093
2024-03-09T05:28:51.305Z,2.0289468854865795
2024-03-09T05:32:10.757Z,1.9883507235738258
2024-03-09T05:35:31.104Z,1.9750956900167767
2024-03-09T05:38:50.448Z,1.9464057256711398
2024-03-09T05:42:10.549Z,1.9369966442953017
2024-03-09T05:45:31.586Z,1.8931666841442956
2024-03-09T05:48:51.559Z,1.9336750209731541
2024-03-09T05:52:11.487Z,1.9595100146812077
2024-03-09T05:55:32.073Z,1.9470598259228176
2024-03-09T05:58:52.247Z,1.9621211723993284
2024-03-09T06:04:12.646Z,1.9782678796140925
2024-03-09T06:10:13.176Z,1.9428901006711408
2024-03-09T06:13:33.359Z,1.8528090918624158
2024-03-09T06:17:39.682Z,1.9362848678691282
2024-03-09T06:20:59.607Z,1.9270907613255022
2024-03-09T06:24:19.433Z,1.9082332739093946
2024-03-09T06:27:40.176Z,1.9286781669463091
2024-03-09T06:31:14.402Z,2.004797609060403
2024-03-09T06:34:34.869Z,2.0388776740771806
2024-03-09T06:37:54.648Z,2.053999318372483
2024-03-09T06:41:26.305Z,2.0371106858221473
2024-03-09T06:46:37.190Z,1.9875144190436242
2024-03-09T06:56:16.629Z,2.058344693791946
2024-03-09T07:00:24.898Z,2.071448982802014
2024-03-09T07:03:44.366Z,2.127683252936242
2024-03-09T07:08:56.209Z,2.1730757130872473
2024-03-09T07:14:15.301Z,2.233239828020135
2024-03-09T07:17:36.351Z,2.268002831375837
2024-03-09T07:22:46.901Z,2.4080799077181196
2024-03-09T07:26:06.241Z,2.482403523489932
2024-03-09T07:29:26.240Z,2.590442795721476
2024-03-09T07:32:46.880Z,2.6707870176174486
2024-03-09T07:36:07.000Z,2.747831900167783
2024-03-09T07:39:27.274Z,2.8681430893456357
2024-03-09T07:42:47.231Z,3.0392538800335562
2024-03-09T07:46:07.378Z,3.189527841862415
2024-03-09T07:49:28.463Z,3.281259175755032
2024-03-09T07:52:48.938Z,3.4140808515100654
2024-03-09T07:56:11.223Z,3.6250852034395975
2024-03-09T08:08:05.066Z,3.9669345113255026
2024-03-09T08:21:35.553Z,4.560654362416108
2024-03-09T08:24:56.904Z,4.584603083053691
2024-03-09T08:28:17.511Z,4.776089293204698
2024-03-09T08:39:51.976Z,5.3911414639261706
2024-03-09T08:43:11.704Z,5.535620281040267
2024-03-09T08:46:31.992Z,5.577367344798653
2024-03-09T08:49:52.075Z,5.7329907718120845
2024-03-09T08:53:13.209Z,5.920709679110741
2024-03-09T08:59:49.673Z,6.192351352768458
2024-03-09T09:03:09.736Z,6.299887269295301
2024-03-09T09:06:30.364Z,6.276726352768456
2024-03-09T09:17:37.898Z,6.564833263422818
2024-03-09T09:20:57.986Z,6.750680316694623
2024-03-09T09:27:11.224Z,6.884388108221473
2024-03-09T09:31:45.037Z,7.047578911493283
2024-03-09T09:35:04.481Z,7.270416054949664
2024-03-09T09:38:24.447Z,7.458201814177851
2024-03-09T09:41:44.609Z,7.551580851510061
2024-03-09T09:45:04.262Z,7.603471057046981
2024-03-09T09:48:24.229Z,7.6318175859899355
2024-03-09T09:51:47.182Z,7.759384175755035
2024-03-09T09:56:57.010Z,7.854943110318794
2024-03-09T10:01:46.640Z,8.063464765100678
2024-03-09T10:05:06.608Z,8.217254351929537
2024-03-09T10:08:26.783Z,8.321338873741611
2024-03-09T10:11:47.687Z,8.472336409395973
2024-03-09T10:15:06.977Z,8.68943477348993
2024-03-09T10:18:28.089Z,8.724397021812075
2024-03-09T10:22:25.684Z,8.483512479026853
2024-03-09T10:27:53.378Z,8.489133284395972
2024-03-09T10:35:17.673Z,8.650909710570462
2024-03-09T10:43:43.275Z,8.951323930369119
2024-03-09T10:48:48.465Z,8.952633441694616
2024-03-09T10:52:08.339Z,8.961726614932878
2024-03-09T10:55:29.523Z,9.078497273489928
2024-03-09T11:02:08.672Z,9.409993708053698
2024-03-09T11:05:29.403Z,9.504070102768457
2024-03-09T11:08:49.565Z,9.57260643875839
2024-03-09T11:12:09.632Z,9.55988359899329
2024-03-09T11:17:22.299Z,9.586263894714767
2024-03-09T11:20:42.211Z,9.24574376048657
2024-03-09T11:24:02.185Z,9.172612992869114
2024-03-09T11:27:22.356Z,9.199623794043621
2024-03-09T11:37:45.800Z,9.320330851510072
2024-03-09T11:41:05.815Z,9.268650377516774
2024-03-09T11:44:46.207Z,9.217996277265096
2024-03-09T11:48:12.223Z,9.24222420302013
2024-03-09T11:52:07.230Z,9.397464869966445
2024-03-09T11:55:44.664Z,9.406542313338928
2024-03-09T11:59:25.566Z,9.432868865352349
2024-03-09T12:03:36.976Z,9.44575162541947
2024-03-09T12:07:25.468Z,9.559508703859066
2024-03-09T12:16:37.381Z,9.182006344379191
2024-03-09T12:19:57.850Z,9.208225408976508
2024-03-09T12:23:18.886Z,9.457782351090612
2024-03-09T12:29:17.725Z,9.770016254194633
2024-03-09T12:32:39.380Z,9.793824716862417
2024-03-09T12:36:00.696Z,9.603928533976514
2024-03-09T12:39:22.232Z,9.5196190750839
2024-03-09T12:42:45.330Z,9.7361904886745
2024-03-09T12:47:40.999Z,9.864717911073829
2024-03-09T12:51:01.284Z,9.630078125000002
2024-03-09T12:54:22.413Z,9.469278261325504
2024-03-09T12:57:42.843Z,9.41572855494966
2024-03-09T13:01:03.888Z,9.265012846057045
2024-03-09T13:04:28.609Z,9.285822147651002
2024-03-09T13:07:57.029Z,9.288884228187914
2024-03-09T13:11:19.790Z,9.223163538171134
2024-03-09T13:14:49.756Z,9.277359479865769
2024-03-09T13:18:11.673Z,9.260220480285229
2024-03-09T13:21:35.819Z,9.306783504614097
2024-03-09T13:32:06.458Z,9.010676646392605
2024-03-09T13:35:27.480Z,9.095710989932881
2024-03-09T13:38:49.764Z,9.191203072567106
2024-03-09T13:42:11.576Z,9.263327128775165
2024-03-09T13:45:33.007Z,9.167901898070467
2024-03-09T13:48:56.076Z,9.088935350251676
2024-03-09T13:52:19.641Z,9.188345480285232
2024-03-09T13:55:44.657Z,9.253513003355698
2024-03-09T13:59:08.810Z,9.25372797818792
2024-03-09T14:02:36.503Z,9.349588401845635
2024-03-09T14:06:00.493Z,9.165049549077175
2024-03-09T14:14:40.659Z,8.946611524748318
2024-03-09T14:18:05.663Z,8.948640677432882
2024-03-09T14:21:29.843Z,9.038487049077183
2024-03-09T14:27:40.823Z,9.081710098573819
2024-03-09T14:31:02.193Z,9.054935245385904
2024-03-09T14:34:24.640Z,9.05053612625839
2024-03-09T14:37:47.477Z,8.955252464345634
2024-03-09T14:41:11.976Z,9.003870857802012
2024-03-09T14:44:34.457Z,8.991874213506701
2024-03-09T14:47:56.794Z,8.889301069630863
2024-03-09T14:55:56.994Z,8.922141096895968
2024-03-09T14:59:22.530Z,8.967814072986569
2024-03-09T15:11:26.533Z,9.016853240352345
2024-03-09T15:14:51.282Z,8.96993498322147
2024-03-09T15:18:14.658Z,8.953663747902677
2024-03-09T15:21:39.610Z,8.996053114513423
2024-03-09T15:25:05.455Z,8.864843749999993
2024-03-09T15:28:28.685Z,8.769609899328852
2024-03-09T15:33:07.751Z,8.661050230704692
2024-03-09T15:39:19.785Z,8.679205117449657
2024-03-09T15:42:43.240Z,8.834705327181203
2024-03-09T15:46:17.802Z,8.800842858640932
2024-03-09T15:49:40.934Z,8.677048815016768
2024-03-09T15:53:03.976Z,8.64530201342282
2024-03-09T15:59:07.278Z,8.583520343959727
2024-03-09T16:04:34.016Z,8.547513370385902
2024-03-09T16:10:17.318Z,8.430911807885904
2024-03-09T16:13:40.501Z,8.410186398909394
2024-03-09T16:17:03.161Z,8.326639838506713
2024-03-09T16:20:26.082Z,8.327807781040269
2024-03-09T16:23:49.157Z,8.263724307885912
2024-03-09T16:29:23.964Z,8.153978345218118
2024-03-09T16:32:46.978Z,8.154620648070475
2024-03-09T16:36:12.101Z,8.111090866191281
2024-03-09T16:40:04.933Z,8.060035654362423
2024-03-09T16:43:32.405Z,8.10817035444631
2024-03-09T16:46:57.625Z,8.124855809563766
2024-03-09T16:50:21.909Z,8.057986839345642
2024-03-09T16:53:46.760Z,7.9573117659396
2024-03-09T16:57:09.609Z,8.009648961828864
2024-03-09T17:00:32.724Z,8.05262164429531
2024-03-09T17:03:57.288Z,8.01643246644296
2024-03-09T17:07:19.295Z,7.918843068372489
2024-03-09T17:13:48.688Z,7.760583578020134
2024-03-09T17:17:10.709Z,7.67651793204698
2024-03-09T17:25:02.922Z,7.44483273909396
2024-03-09T17:31:30.866Z,7.359427432885908
2024-03-09T17:34:55.176Z,7.312941747063767
2024-03-09T17:38:18.680Z,7.273373269714766
2024-03-09T17:41:40.083Z,7.240611891778527
2024-03-09T17:45:00.546Z,7.241137531459731
2024-03-09T17:57:03.245Z,7.091933200503361
2024-03-09T18:18:45.838Z,6.906154309983215
2024-03-09T18:22:07.128Z,6.846139628775163
2024-03-09T18:25:27.706Z,6.79937080536912
2024-03-09T18:28:48.740Z,6.761666317114086
2024-03-09T18:34:23.113Z,6.687888003355696
2024-03-09T18:37:43.517Z,6.625250367030199
2024-03-09T18:45:25.535Z,6.544013475251679
2024-03-09T18:48:46.289Z,6.499369494546982
2024-03-09T18:52:06.636Z,6.461396287751678
2024-03-09T18:55:27.173Z,6.392166526845632
2024-03-09T18:58:47.688Z,6.361713506711402
2024-03-09T19:02:07.830Z,6.34484846895973
2024-03-09T19:08:11.791Z,6.262271916946311
2024-03-09T19:11:31.847Z,6.218089345637581
2024-03-09T19:14:51.709Z,6.180088611577185
2024-03-09T19:29:59.088Z,6.0523227768456405
2024-03-09T19:33:19.953Z,6.03647886954698
2024-03-09T19:36:40.051Z,6.020308567533563
2024-03-09T19:40:01.126Z,5.996498794043627
2024-03-09T19:43:22.421Z,5.975960832634231
2024-03-09T19:46:42.684Z,5.945273175335574
2024-03-09T19:50:03.405Z,5.930732225251678
2024-03-09T19:53:23.474Z,5.926735528523492
2024-03-09T19:56:44.109Z,5.90484610947987
2024-03-09T20:00:04.446Z,5.884424811241616
2024-03-09T20:03:25.465Z,5.8705956375839
2024-03-09T20:06:45.819Z,5.874512374161076
2024-03-09T20:15:44.297Z,5.818651688338931
2024-03-09T20:19:31.604Z,5.803852506291952
2024-03-09T20:22:52.829Z,5.831589502936243
2024-03-09T20:27:36.031Z,5.829042575503358
2024-03-09T20:30:56.454Z,5.813876363255037
2024-03-09T20:34:47.429Z,5.747087353187923
2024-03-09T20:38:09.525Z,5.723711461828859
2024-03-09T20:43:53.024Z,5.693697567114087
2024-03-09T20:47:12.898Z,5.65519478817114
2024-03-09T20:50:34.095Z,5.63927223154362
2024-03-09T20:53:54.516Z,5.6443582214765025
2024-03-09T20:57:16.537Z,5.620191904362414
2024-03-09T21:00:37.987Z,5.604758284395971
2024-03-09T21:05:50.949Z,5.586919305788591
2024-03-09T21:37:51.603Z,5.413687604865764
2024-03-09T21:41:11.783Z,5.384508703859061
2024-03-09T21:45:22.861Z,5.335237520973152
2024-03-09T21:48:43.255Z,5.318162751677847
2024-03-09T21:52:04.570Z,5.301541526845632
2024-03-09T21:57:02.009Z,5.286814440016776
2024-03-09T22:00:24.910Z,5.296725566275167
2024-03-09T22:03:46.139Z,5.2528117135067065
2024-03-09T22:07:06.007Z,5.25425623951342
2024-03-09T22:13:32.701Z,5.222943320050329
2024-03-09T22:16:53.477Z,5.213620752936237
2024-03-09T22:20:13.834Z,5.209183619966439
2024-03-09T22:23:35.294Z,5.165167523070471
2024-03-09T22:26:56.253Z,5.13729157927853
2024-03-09T22:30:18.196Z,5.13927747483222
2024-03-09T22:33:39.978Z,5.1496670511745
2024-03-09T22:37:01.546Z,5.130373059983228
2024-03-09T22:40:22.417Z,5.085116925335575
2024-03-09T22:43:43.855Z,5.076516621224834
2024-03-09T22:47:04.929Z,5.04819893036913
2024-03-09T22:50:35.014Z,5.009624056208059
2024-03-09T22:57:01.035Z,4.982919987416114
2024-03-09T23:00:35.855Z,4.945189282718125
2024-03-09T23:03:56.479Z,4.908854603607386
2024-03-09T23:07:16.409Z,4.893285968959735
2024-03-09T23:11:13.833Z,4.844875996224839
2024-03-09T23:14:34.961Z,4.815626310822155
2024-03-09T23:17:56.115Z,4.791204383389269
2024-03-09T23:25:31.306Z,4.6969208787751695
2024-03-09T23:31:18.219Z,4.651999003775166
2024-03-09T23:34:38.877Z,4.635389576342283
2024-03-09T23:37:58.998Z,4.612271916946306
2024-03-09T23:41:21.597Z,4.564367921560405
2024-03-09T23:48:16.506Z,4.542517827181207
2024-03-09T23:53:22.643Z,4.525587248322147
2024-03-09T23:56:43.340Z,4.540450660654361
